Oscar Dyson — WTEP — position and weather

sailwx.info

Track history (hours):
 
Tides and Currents Weather Stations Pressure Air Temp Water Temp Dewpoint Dewpoint Depression Visibility Wind Speed Wind Dir Waves Ship Positions

Oceanographic research ship Oscar Dyson (USA)

Ship's website: http://www.moc.noaa.gov/od/

Detailed information on ship capabilities available from University of Delaware's Ocean Information Center and ARCUS's ALIAS (Arctic Logistics Information and Support) project.

Last reported at 2016-May-29 10:49 UTC. Time now 2016-May-29 11:35 UTC.
Position N 58°30' W 166°00'.

Type: Ship. MMSI: 369959000.

Wind from 060 at 4 knots

Air temperature 6.0 ° C
Water temperature 6.3 ° C

Date/timePositionNaut miles runAvg speedWind from/ knotsBaromVisibWave heightAir tempDewpointWater temp
2016-May-29 10:49N 58°30' W 166°00'7 6.9 060 / 4 6.0 6.3
2016-May-29 09:50N 58°36' W 165°54'1212.6 070 / 4 5.7 6.1
2016-May-29 08:51N 58°48' W 165°48'1212.6 020 / 7 5.9 6.2
2016-May-29 07:52N 59°00' W 165°42'6 6.0 320 / 6 6.2 6.3
2016-May-29 06:52N 59°06' W 165°42'910.7 280 / 6 6.4 6.7
2016-May-29 06:00N 59°06' W 165°24'0 0.0 280 / 51018.110.8 0.5 7.0 -6.7
2016-May-29 05:53N 59°06' W 165°24'1111.2 260 / 3 6.2 6.7
2016-May-29 04:54N 59°00' W 165°06'6 6.1 250 / 6 6.2 7.0
2016-May-29 03:55N 58°54' W 165°06'1213.1 310 / 2 6.9 7.1
2016-May-29 03:00N 58°42' W 165°06'9 8.1 270 / 21018.010.8 0.5 7.3 -7.5
2016-May-29 01:56N 58°36' W 165°18'2412.4 170 / 2 7.6 7.2
2016-May-29 00:00N 58°12' W 165°18'1413.3 200 / 51017.610.8 0.5 7.6 -6.7
2016-May-28 22:59N 58°00' W 165°30'7 6.9 180 / 5 7.4 6.7
2016-May-28 22:00N 57°54' W 165°36'1813.5 160 / 6 7.7 6.7
2016-May-28 20:39N 57°36' W 165°42'1212.0 140 / 9 7.1 6.7
2016-May-28 19:39N 57°24' W 165°42'3 3.3 150 / 8 7.6 6.8
2016-May-28 18:40N 57°24' W 165°48'6 6.1 140 / 8 7.7 6.7
2016-May-28 17:41N 57°18' W 165°48'25 8.4 170 / 8 7.6 7.0
2016-May-28 14:43N 56°54' W 166°00'3210.7 140 / 14 7.2 7.1
2016-May-28 11:46N 56°24' W 166°18'6 6.1 180 / 14 7.1 7.4
2016-May-28 10:47N 56°18' W 166°18'1212.7 160 / 17 7.3 7.6
2016-May-28 09:48N 56°06' W 166°24'7 6.9 150 / 16 7.3 7.7
2016-May-28 08:48N 56°00' W 166°30'1212.7 160 / 7 7.1 7.7
2016-May-28 07:49N 55°48' W 166°36'3110.4 110 / 12 7.4 7.7
2016-May-28 04:52N 55°18' W 166°48'1910.3 350 / 6 7.2 7.6
2016-May-28 03:00N 55°00' W 167°00'0 0.0 010 / 71013.2 7.1 6.7 7.3
2016-May-28 02:53N 55°00' W 167°00'9 9.3 010 / 7 7.1 7.3
2016-May-28 01:54N 54°54' W 166°48'2211.3 020 / 9 7.1 7.6
2016-May-28 00:00N 55°00' W 166°12'6 6.0 010 / 91012.4 5.4 0.5 7.4 -7.3
2016-May-27 23:00N 55°06' W 166°12'7138.2 350 / 91012.610.8 0.5 8.8 -7.6
2016-May-27 22:57N 55°12' W 166°18'7 7.3 350 / 9 7.4 7.6
2016-May-27 22:00N 55°18' W 166°12'0 0.0 010 / 91014.9 7.5 6.9 7.5
2016-May-27 21:57N 55°18' W 166°12'1213.1 350 / 10 7.3 7.5
2016-May-27 21:00N 55°30' W 166°06'0 0.0 1015.0 7.6 7.0 7.7
2016-May-27 20:58N 55°30' W 166°06'6 6.2 010 / 6 7.6 7.7
2016-May-27 20:00N 55°36' W 166°06'0 0.0 040 / 51015.2 7.4 6.8 7.5
2016-May-27 19:59N 55°36' W 166°06'7 7.0 040 / 6 7.4 7.5
2016-May-27 19:00N 55°42' W 166°00'1413.8 060 / 71015.5 7.2 6.6 7.5
2016-May-27 18:00N 55°54' W 165°48'3 9.6 060 / 91014.210.8 0.5 7.5 6.6-7.6
2016-May-27 17:39N 55°54' W 165°54'6 9.2 060 / 7 7.2 7.6
2016-May-27 17:00N 56°00' W 165°54'310.1 070 / 81016.6 7.1 6.4 7.6
2016-May-27 16:40N 56°00' W 165°48'1218.0 070 / 10 7.1 7.6
2016-May-27 16:00N 56°12' W 165°48'310.5 060 / 101016.9 7.0 6.3 7.3
2016-May-27 15:41N 56°12' W 165°42'6 8.8 060 / 10 7.0 7.4
2016-May-27 15:00N 56°18' W 165°42'0 0.0 050 / 91017.1 7.0 6.4 7.3
2016-May-27 14:42N 56°18' W 165°42'3713.6 060 / 10 7.0 7.3
2016-May-27 12:00N 56°54' W 165°30'312.3 060 / 101019.1 6.5 6.1 7.0
2016-May-27 11:44N 56°54' W 165°24'3211.5 070 / 11 6.5 7.0
2016-May-27 09:00N 57°24' W 165°06'313.9 060 / 91018.910.8 0.5 6.2 5.8-6.5
2016-May-27 08:46N 57°24' W 165°12'7 6.9 060 / 9 6.2 6.5
2016-May-27 07:47N 57°30' W 165°06'1810.3 070 / 9 6.2 6.4
2016-May-27 06:00N 57°48' W 165°00'0 0.0 080 / 101022.0 6.2 5.5 6.2
2016-May-27 05:49N 57°48' W 165°00'1214.7 080 / 10 6.3 6.1
2016-May-27 05:00N 58°00' W 165°00'740.8 080 / 111022.3 6.1 5.3 6.0
2016-May-27 04:50N 57°54' W 164°54'1821.6 080 / 11 6.0 6.0
2016-May-27 04:00N 58°12' W 164°54'745.2 090 / 91022.5 5.9 5.0 5.8
2016-May-27 03:51N 58°06' W 164°48'1212.4 090 / 9 5.9 5.7
2016-May-27 02:51N 58°18' W 164°42'1214.1 100 / 10 5.9 5.7
2016-May-27 02:00N 58°30' W 164°42'0 0.0 100 / 111023.6 5.9 4.9 5.8
2016-May-27 01:52N 58°30' W 164°42'2613.8 100 / 11 5.9 5.7
2016-May-27 00:00N 58°54' W 164°24'7 6.8 100 / 131023.3 5.4 0.5 6.0 4.5-6.5
2016-May-26 23:00N 59°00' W 164°30'337.1 100 / 121025.0 6.0 4.3 6.7
2016-May-26 22:55N 59°00' W 164°24'1212.4 100 / 13 5.9 6.7
2016-May-26 21:55N 59°12' W 164°18'6 6.1 110 / 9 5.9 7.0
2016-May-26 20:56N 59°18' W 164°18'1111.8 130 / 8 6.4 7.3
2016-May-26 20:00N 59°12' W 164°00'361.4 100 / 81026.4 6.2 4.2 7.6
2016-May-26 19:57N 59°12' W 163°54'12 6.4 110 / 7 6.2 7.6
2016-May-26 18:00N 59°00' W 163°48'0 0.0 130 / 101026.4 5.6 3.8 6.6
2016-May-26 17:59N 59°00' W 163°48'1212.2 130 / 10 5.7 6.7
2016-May-26 17:00N 58°48' W 163°48'1212.4 130 / 91026.2 5.5 3.8 6.4
2016-May-26 16:00N 58°36' W 163°54'7 6.8 130 / 12 5.8 6.2
2016-May-26 15:00N 58°30' W 164°00'0 0.0 140 / 111026.0 5.9 4.3 6.0
2016-May-26 14:56N 58°30' W 164°00'1213.3 150 / 14 5.9 6.0
2016-May-26 14:00N 58°18' W 164°06'0 0.0 130 / 121025.8 5.9 5.0 5.7
2016-May-26 13:56N 58°18' W 164°06'7 7.3 130 / 11 5.9 5.7
2016-May-26 13:00N 58°12' W 164°12'690.0 130 / 121025.7 6.0 5.1 5.8
2016-May-26 12:56N 58°06' W 164°12'7 7.3 140 / 10 6.0 5.8
2016-May-26 12:00N 58°00' W 164°18'0 0.0 140 / 101025.9 6.0 5.1 5.7
2016-May-26 11:57N 58°00' W 164°18'2412.4 140 / 11 5.9 5.7
2016-May-26 10:00N 57°36' W 164°24'1212.0 150 / 131026.2 6.4 4.2 6.1
2016-May-26 09:00N 57°24' W 164°24'3210.5 140 / 131024.110.8 0.5 6.4 4.6-6.5
2016-May-26 06:00N 56°54' W 164°42'328.1 150 / 131023.510.8 1.0 7.1 4.7-6.6
2016-May-26 05:53N 56°54' W 164°48'1212.2 150 / 12 6.7 6.6
2016-May-26 04:54N 56°42' W 164°48'1212.7 160 / 12 6.9 6.7
2016-May-26 03:55N 56°30' W 164°54'9 9.8 170 / 11 7.1 6.8
2016-May-26 03:00N 56°24' W 165°06'349.8 180 / 101025.5 7.2 4.8 7.0
2016-May-26 02:56N 56°24' W 165°00'1414.7 180 / 10 7.1 7.0
2016-May-26 02:00N 56°12' W 165°12'366.8 190 / 131025.6 8.5 5.8 6.8
2016-May-26 01:57N 56°12' W 165°06'1212.5 190 / 12 8.5 6.8
2016-May-26 00:57N 56°00' W 165°12'7 7.2 190 / 16 7.8 7.0
2016-May-26 00:00N 55°54' W 165°18'6 6.0 190 / 141025.4 7.4 4.5 7.0
2016-May-25 23:00N 55°48' W 165°18'0 0.0 190 / 181025.5 7.1 4.3 7.0
2016-May-25 22:59N 55°48' W 165°18'19 9.7 190 / 21 7.4 7.0
2016-May-25 21:00N 55°30' W 165°30'617.1 180 / 201025.5 6.7 4.5 7.1
2016-May-25 20:39N 55°24' W 165°30'710.5 180 / 23 6.9 7.1
2016-May-25 20:00N 55°24' W 165°18'720.4 190 / 241025.4 6.7 4.3 6.8
2016-May-25 19:40N 55°24' W 165°06'710.2 190 / 22 6.8 6.8
2016-May-25 19:00N 55°24' W 164°54'9 9.1 190 / 241025.5 6.7 4.5 7.0
2016-May-25 18:00N 55°30' W 164°42'1212.5 210 / 191023.710.8 1.0 6.6 -6.7
2016-May-25 17:00N 55°42' W 164°48'311.3 210 / 181025.7 6.2 4.2 6.8
2016-May-25 16:42N 55°42' W 164°42'1810.8 210 / 22 6.1 6.8
2016-May-25 15:00N 56°00' W 164°36'0 0.0 210 / 181025.2 5.8 4.4 6.8
2016-May-25 14:44N 56°00' W 164°36'6 8.2 210 / 19 5.7 6.7
2016-May-25 14:00N 56°06' W 164°36'313.4 210 / 171025.2 5.8 4.1 6.8
2016-May-25 13:45N 56°06' W 164°30'1810.5 210 / 18 5.9 6.8
2016-May-25 12:00N 56°24' W 164°24'1212.4 210 / 161025.0 6.3 4.6 6.7
2016-May-25 11:00N 56°36' W 164°18'315.2 230 / 141025.1 6.5 4.5 6.8
2016-May-25 10:47N 56°36' W 164°12'1215.3 220 / 14 6.5 6.7
2016-May-25 10:00N 56°48' W 164°12'0 0.0 210 / 101025.3 6.5 5.6 6.8
2016-May-25 09:48N 56°48' W 164°12'1215.5 210 / 10 6.5 6.8
2016-May-25 09:00N 57°00' W 164°06'0 0.0 230 / 101025.4 6.3 5.7 6.8
2016-May-25 08:49N 57°00' W 164°06'7 8.4 230 / 11 6.2 6.8
2016-May-25 08:00N 57°06' W 164°00'1210.7 210 / 131025.3 6.0 5.4 6.6
2016-May-25 06:50N 57°18' W 163°54'1214.4 240 / 14 5.9 6.2
2016-May-25 06:00N 57°30' W 163°54'745.4 210 / 121024.8 6.3 5.7 6.2
2016-May-25 05:51N 57°24' W 163°48'3712.8 210 / 12 6.3 6.1
2016-May-25 03:00N 58°00' W 163°36'0 0.0 220 / 111025.1 5.9 5.4 6.2
2016-May-25 02:53N 58°00' W 163°36'7 6.9 220 / 11 5.9 6.2
2016-May-25 01:54N 58°06' W 163°30'1212.6 210 / 11 5.9 6.1
2016-May-25 00:55N 58°18' W 163°24'1414.8 210 / 12 6.3 6.5
2016-May-25 00:00N 58°30' W 163°12'1212.4 220 / 131023.2 5.4 1.0 5.6 4.8-6.1
2016-May-24 23:00N 58°42' W 163°18'6120.0 220 / 151025.0 6.3 4.5 6.2
2016-May-24 22:57N 58°36' W 163°18'23 7.7 220 / 13 6.3 6.2
2016-May-24 20:00N 58°42' W 162°36'6360.0 200 / 121025.2 6.3 3.7 6.4
2016-May-24 19:59N 58°36' W 162°36'18 9.2 200 / 13 6.3 6.4
2016-May-24 18:00N 58°18' W 162°42'3 9.0 250 / 131024.010.8 0.5 6.6 3.5-6.2
2016-May-24 17:39N 58°18' W 162°48'710.4 250 / 11 6.3 6.2
2016-May-24 17:00N 58°12' W 162°54'618.0 250 / 121025.9 6.3 4.1 6.4
2016-May-24 16:40N 58°06' W 162°54'25 9.3 240 / 10 6.3 6.4
2016-May-24 14:00N 57°42' W 163°06'620.0 220 / 111025.6 6.5 4.4 6.2
2016-May-24 13:42N 57°36' W 163°06'1911.2 230 / 12 6.4 6.2
2016-May-24 12:00N 57°18' W 163°18'3110.2 240 / 71025.9 6.5 4.1 6.1
2016-May-24 09:00N 56°48' W 163°30'1212.4 210 / 81026.1 6.7 6.4 6.8
2016-May-24 08:00N 56°36' W 163°36'7 6.9 220 / 81025.9 6.7 6.4 7.0
2016-May-24 07:00N 56°30' W 163°42'630.0 220 / 71025.6 6.6 6.3 7.0
2016-May-24 06:48N 56°24' W 163°42'7 8.6 220 / 7 6.6 7.0
2016-May-24 06:00N 56°18' W 163°48'0 0.0 210 / 71025.2 7.0 6.7 7.1
2016-May-24 05:49N 56°18' W 163°48'1910.6 220 / 8 6.8 7.1
2016-May-24 04:00N 56°00' W 164°00'741.3 230 / 51025.2 6.5 6.2 6.8
2016-May-24 03:50N 55°54' W 163°54'23 8.3 230 / 4 6.5 6.8
2016-May-24 01:00N 56°06' W 163°18'7 6.9 260 / 111025.0 6.6 6.3 6.7
2016-May-24 00:00N 56°12' W 163°12'3712.4 250 / 101024.7 6.6 6.3 6.7
2016-May-23 21:00N 56°48' W 162°54'0 0.0 270 / 81023.3 6.4 6.0 6.7
2016-May-23 20:56N 56°48' W 162°54'1213.3 270 / 8 6.5 6.7
2016-May-23 20:00N 57°00' W 162°48'6120.0 290 / 91022.8 6.2 5.9 6.1
2016-May-23 19:57N 56°54' W 162°48'2512.6 290 / 9 6.2 6.2
2016-May-23 17:59N 57°18' W 162°36'1212.6 240 / 13 6.3 6.2
2016-May-23 17:00N 57°30' W 162°30'0 0.0 240 / 91021.4 6.2 5.8 6.1
2016-May-23 16:59N 57°30' W 162°30'2613.0 240 / 10 6.3 6.1
2016-May-23 15:00N 57°54' W 162°12'3 9.1 200 / 91019.510.8 0.5 6.8 5.2-6.2
2016-May-23 14:39N 57°54' W 162°18'6 9.2 200 / 9 6.0 6.1
2016-May-23 14:00N 58°00' W 162°18'3 9.5 200 / 121021.2 6.0 4.8 6.4
2016-May-23 13:40N 58°00' W 162°12'1218.0 220 / 11 6.1 6.3
2016-May-23 13:00N 58°12' W 162°12'9 9.5 220 / 111021.2 6.0 4.5 6.4
2016-May-23 12:00N 58°12' W 161°54'1111.2 180 / 131021.5 5.7 3.7 6.5
2016-May-23 11:00N 58°06' W 161°36'311.2 190 / 101022.0 5.5 2.4 5.8
2016-May-23 10:43N 58°06' W 161°30'1911.1 200 / 9 5.4 6.0
2016-May-23 09:00N 57°48' W 161°42'622.5 210 / 71022.1 5.5 2.6 6.2
2016-May-23 08:44N 57°42' W 161°42'7 9.3 210 / 7 5.5 6.2
2016-May-23 08:00N 57°36' W 161°48'624.0 190 / 61022.0 5.5 3.0 6.2
2016-May-23 07:45N 57°30' W 161°48'7 9.1 200 / 6 5.5 6.2
2016-May-23 07:00N 57°24' W 161°54'0 0.0 200 / 41021.7 5.6 3.1 6.2
2016-May-23 06:46N 57°24' W 161°54'1823.5 200 / 3 5.6 6.2
2016-May-23 06:00N 57°06' W 161°54'315.0 240 / 91019.510.8 1.0 7.4 3.0-6.2
2016-May-23 05:47N 57°06' W 162°00'3 4.2 240 / 8 6.1 6.2
2016-May-23 05:00N 57°06' W 162°06'627.7 250 / 71021.2 6.2 3.4 6.3
2016-May-23 04:47N 57°00' W 162°06'1215.9 250 / 7 6.2 6.3
2016-May-23 04:00N 56°48' W 162°12'0 0.0 230 / 61020.9 6.3 3.8 6.4
2016-May-23 03:48N 56°48' W 162°12'7 8.6 230 / 6 6.2 6.4
2016-May-23 03:00N 56°42' W 162°06'318.0 250 / 91018.610.8 1.0 6.5 3.1-6.6
2016-May-23 02:49N 56°42' W 162°12'18 9.3 260 / 7 6.5 6.6
2016-May-23 00:51N 56°24' W 162°18'1820.8 280 / 5 6.3 6.7
2016-May-23 00:00N 56°18' W 161°48'12 5.9 240 / 131017.1 5.4 1.0 6.6 5.6-6.5
2016-May-22 21:53N 56°30' W 161°42'1214.1 240 / 15 6.7 6.5
2016-May-22 21:00N 56°42' W 161°36'660.0 230 / 161016.8 6.6 6.3 6.5
2016-May-22 20:54N 56°36' W 161°36'2412.7 230 / 16 6.6 6.5
2016-May-22 19:00N 57°00' W 161°30'7 6.8 230 / 221015.3 6.7 6.2 6.2
2016-May-22 18:00N 57°06' W 161°24'690.0 220 / 211014.6 6.5 6.0 6.0
2016-May-22 17:56N 57°00' W 161°24'1213.3 230 / 21 6.5 6.0
2016-May-22 17:00N 57°12' W 161°18'0 0.0 220 / 231013.7 6.5 5.9 5.7
2016-May-22 16:57N 57°12' W 161°18'18 9.3 220 / 23 6.5 5.7
2016-May-22 14:59N 57°30' W 161°12'7 6.9 210 / 22 6.5 5.8
2016-May-22 14:00N 57°36' W 161°06'0 0.0 210 / 211012.8 6.4 6.0 5.8
2016-May-22 13:59N 57°36' W 161°06'18 9.2 210 / 22 6.3 5.8
2016-May-22 12:00N 57°54' W 161°00'0 0.0 190 / 221012.7 6.1 5.5 5.6
2016-May-22 11:39N 57°54' W 161°00'6 9.2 190 / 22 6.0 5.6
2016-May-22 11:00N 58°00' W 161°00'3 9.5 180 / 231013.3 5.9 5.2 6.0
2016-May-22 10:40N 58°00' W 160°54'2012.0 180 / 25 5.9 6.0
2016-May-22 09:00N 57°54' W 160°18'19 9.6 190 / 191015.7 5.7 4.7 5.7
2016-May-22 07:00N 57°36' W 160°30'1212.4 190 / 181016.2 6.2 4.5 5.8
2016-May-22 06:00N 57°24' W 160°24'312.1 190 / 131014.610.8 1.0 7.8 4.7-5.7
2016-May-22 05:44N 57°24' W 160°30'912.0 190 / 15 6.6 5.7
2016-May-22 05:00N 57°18' W 160°42'729.2 170 / 161017.0 6.5 4.5 5.8
2016-May-22 04:46N 57°12' W 160°36'1810.4 160 / 12 6.5 5.8
2016-May-22 03:00N 56°54' W 160°42'315.1 170 / 131016.0 5.4 0.5 6.4 4.4-6.0
2016-May-22 02:47N 56°54' W 160°48'7 8.7 180 / 14 6.5 5.9
2016-May-22 02:00N 56°48' W 160°54'0 0.0 160 / 101018.1 6.0 3.5 6.2
2016-May-22 01:48N 56°48' W 160°54'1215.6 160 / 10 6.0 6.2
2016-May-22 01:00N 56°36' W 161°00'318.0 140 / 61018.5 6.0 4.0 6.1
2016-May-22 00:49N 56°36' W 160°54'7 8.1 140 / 6 6.0 6.1
2016-May-22 00:00N 56°36' W 160°42'9 8.9 220 / 51017.3 5.4 1.0 6.5 3.6-6.2
2016-May-21 23:00N 56°42' W 160°30'0 0.0 230 / 121019.4 6.2 3.8 5.8
2016-May-21 22:50N 56°42' W 160°30'1213.9 230 / 12 6.2 5.7
2016-May-21 22:00N 56°48' W 160°12'0 0.0 230 / 151019.3 6.0 3.7 5.7
2016-May-21 21:51N 56°48' W 160°12'1214.1 230 / 16 6.0 5.7
2016-May-21 21:00N 57°00' W 160°12'751.3 240 / 151018.6 6.3 3.8 5.9
2016-May-21 20:52N 56°54' W 160°06'3712.8 240 / 15 6.3 5.9
2016-May-21 18:00N 57°30' W 159°54'768.1 260 / 181016.2 5.6 2.9 5.4
2016-May-21 17:54N 57°24' W 159°48'2412.6 260 / 20 5.7 5.4
2016-May-21 16:00N 57°48' W 159°48'7 6.8 250 / 181014.1 5.6 3.3 5.6
2016-May-21 15:00N 57°54' W 159°42'0 0.0 260 / 161013.3 5.4 2.9 5.8
2016-May-21 14:57N 57°54' W 159°42'1213.1 260 / 16 5.6 5.7
2016-May-21 14:00N 58°06' W 159°36'6180.0 270 / 231011.9 5.5 2.0 5.8
2016-May-21 13:58N 58°00' W 159°36'1212.8 260 / 22 5.5 5.8
2016-May-21 13:00N 58°12' W 159°30'0 0.0 270 / 201011.0 5.5 2.5 6.6
2016-May-21 12:58N 58°12' W 159°30'7 7.0 260 / 24 5.7 6.6
2016-May-21 12:00N 58°06' W 159°24'0 0.0 260 / 281009.9 5.6 1.9 6.0
2016-May-21 11:59N 58°06' W 159°24'1212.6 260 / 25 5.6 6.0
2016-May-21 11:00N 57°54' W 159°18'14 6.8 270 / 281009.2 5.3 3.3 6.0
2016-May-21 09:00N 57°42' W 159°06'618.0 260 / 311007.4 5.6 3.4 5.6
2016-May-21 08:40N 57°36' W 159°06'710.2 270 / 31 5.6 5.6
2016-May-21 08:00N 57°30' W 159°12'20 6.7 270 / 281006.5 5.6 3.6 5.5
2016-May-21 05:00N 57°18' W 158°42'622.5 260 / 211002.9 6.0 5.7 5.8
2016-May-21 04:44N 57°12' W 158°42'2011.8 260 / 22 6.0 5.8
2016-May-21 03:00N 57°06' W 159°18'624.0 290 / 241001.0 5.9 5.8 5.7
2016-May-21 02:45N 57°00' W 159°18'7 8.7 290 / 23 6.0 5.7
2016-May-21 02:00N 57°00' W 159°30'625.7 290 / 24999.9 6.0 5.8 5.9
2016-May-21 01:46N 56°54' W 159°30'1212.7 290 / 23 6.0 6.1
2016-May-21 00:47N 56°42' W 159°36'7 8.7 300 / 23 6.0 6.6
2016-May-21 00:00N 56°36' W 159°42'1211.6 320 / 19996.9 5.4 0.5 6.2 6.2-7.2
2016-May-20 23:00N 56°30' W 160°00'0 0.0 340 / 19997.1 0.5 0.5 6.0 5.6-6.2
2016-May-20 22:48N 56°30' W 160°00'1316.6 340 / 18 5.8 6.3
2016-May-20 22:00N 56°30' W 160°24'737.4 340 / 19999.5 5.5 5.2 6.1
2016-May-20 21:49N 56°24' W 160°18'7 8.1 340 / 18 5.5 6.1
2016-May-20 21:00N 56°24' W 160°30'741.2 350 / 17999.9 5.5 5.0 6.7
2016-May-20 20:50N 56°18' W 160°24'24 8.5 340 / 17 5.5 6.9
2016-May-20 18:00N 56°12' W 161°06'0 0.0 1002.5 5.8 4.8 6.0
2016-May-20 17:52N 56°12' W 161°06'2311.9 360 / 9 5.8 6.0
2016-May-20 15:54N 56°00' W 161°42'1011.2 350 / 11 6.0 6.6
2016-May-20 15:00N 56°00' W 162°00'0 0.0 340 / 91005.1 6.0 4.3 6.8
2016-May-20 14:55N 56°00' W 162°00'7 6.8 350 / 9 6.0 6.8
2016-May-20 13:56N 56°00' W 162°12'17 8.7 300 / 10 5.9 6.3
2016-May-20 12:00N 56°00' W 162°42'7137.5 340 / 31006.3 5.7 4.7 7.0
2016-May-20 11:57N 55°54' W 162°36'9 9.5 330 / 3 5.7 7.0
2016-May-20 11:00N 55°48' W 162°48'3101.2 080 / 41006.8 5.1 4.4 6.3
2016-May-20 10:58N 55°48' W 162°42'1212.7 090 / 6 5.2 6.6
2016-May-20 09:59N 55°36' W 162°48'1212.7 010 / 3 5.4 6.7
2016-May-20 09:00N 55°24' W 162°54'1211.8 290 / 5 5.8 6.2
2016-May-20 08:00N 55°30' W 163°12'0 0.0 210 / 31008.3 5.7 4.3 7.0
2016-May-20 07:39N 55°30' W 163°12'1015.7 190 / 6 5.8 6.8
2016-May-20 07:00N 55°30' W 163°30'7 6.9 240 / 21008.5 6.2 5.2 7.1
2016-May-20 06:00N 55°24' W 163°36'618.0 290 / 11008.9 6.2 4.5 7.2
2016-May-20 05:40N 55°18' W 163°36'710.4 300 / 2 6.1 7.1
2016-May-20 05:00N 55°12' W 163°42'0 0.0 210 / 21009.2 5.5 4.1 7.1
2016-May-20 04:41N 55°12' W 163°42'1911.4 190 / 2 5.4 7.0
2016-May-20 03:00N 55°30' W 163°54'1211.8 030 / 131008.5 5.4 0.5 6.4 4.8-7.0
2016-May-20 02:00N 55°36' W 164°12'725.9 050 / 91011.1 6.3 3.7 7.0
2016-May-20 01:44N 55°30' W 164°06'14 8.0 050 / 8 6.1 7.0
2016-May-20 00:00N 55°18' W 164°18'7 6.9 060 / 71012.6 6.2 4.0 7.5
2016-May-19 23:00N 55°12' W 164°24'314.7 070 / 71012.9 6.1 4.1 7.1
2016-May-19 22:46N 55°12' W 164°18'1418.0 080 / 8 6.2 7.2
2016-May-19 22:00N 55°00' W 164°30'315.9 040 / 81013.2 5.4 3.4 6.6
2016-May-19 21:47N 55°00' W 164°24'7 8.8 040 / 9 5.3 6.6
2016-May-19 21:00N 55°00' W 164°36'734.6 050 / 71014.2 5.4 3.7 6.5
2016-May-19 20:48N 54°54' W 164°30'7 8.6 060 / 7 5.5 6.5
2016-May-19 20:00N 55°00' W 164°36'630.0 1014.5 4.6 3.3 6.6
2016-May-19 19:48N 54°54' W 164°36'1214.9 360 / 7 4.5 6.6
2016-May-19 19:00N 55°00' W 164°54'0 0.0 290 / 21015.2 4.1 2.3 6.6
2016-May-19 18:49N 55°00' W 164°54'911.2 260 / 1 4.0 6.6
2016-May-19 18:00N 55°06' W 165°06'636.0 170 / 71015.4 5.1 0.7 6.7
2016-May-19 17:50N 55°00' W 165°06'910.9 160 / 6 5.2 6.8
2016-May-19 17:00N 55°06' W 165°18'1413.7 190 / 131013.910.8 0.5 5.7 0.5-6.8
2016-May-19 16:00N 55°06' W 165°42'325.7 210 / 101015.6 5.3 2.3 6.7
2016-May-19 15:52N 55°06' W 165°36'910.5 210 / 10 5.3 6.7
2016-May-19 15:00N 55°00' W 165°48'759.3 220 / 81015.9 4.9 2.2 7.0
2016-May-19 14:53N 54°54' W 165°42'7 6.9 220 / 8 4.9 7.0
2016-May-19 13:53N 54°48' W 165°48'9 9.3 250 / 8 4.8 6.8
2016-May-19 12:54N 54°42' W 165°36'1011.6 180 / 15 5.6 6.5
2016-May-19 12:00N 54°42' W 165°18'0 0.0 180 / 161016.9 5.4 0.7 6.7
2016-May-19 11:55N 54°42' W 165°18'6 6.0 180 / 15 5.5 6.7
2016-May-19 10:55N 54°36' W 165°18'   180 / 15 5.4 6.4
Track history (hours):
 
Tides and Currents Weather Stations Pressure Air Temp Water Temp Dewpoint Dewpoint Depression Visibility Wind Speed Wind Dir Waves Ship Positions

Oceanographic research ship Oscar Dyson (USA)

Ship's website: http://www.moc.noaa.gov/od/

Detailed information on ship capabilities available from University of Delaware's Ocean Information Center and ARCUS's ALIAS (Arctic Logistics Information and Support) project.

Last reported at 2016-May-29 10:49 UTC. Time now 2016-May-29 11:35 UTC.
Position N 58°30' W 166°00'.

Type: Ship. MMSI: 369959000.

Wind from 060 at 4 knots

Air temperature 6.0 ° C
Water temperature 6.3 ° C

Date/timePositionNaut miles runAvg speedWind from/ knotsBaromVisibWave heightAir tempDewpointWater temp
2016-May-29 10:49N 58°30' W 166°00'7 6.9 060 / 4 6.0 6.3
2016-May-29 09:50N 58°36' W 165°54'1212.6 070 / 4 5.7 6.1
2016-May-29 08:51N 58°48' W 165°48'1212.6 020 / 7 5.9 6.2
2016-May-29 07:52N 59°00' W 165°42'6 6.0 320 / 6 6.2 6.3
2016-May-29 06:52N 59°06' W 165°42'910.7 280 / 6 6.4 6.7
2016-May-29 06:00N 59°06' W 165°24'0 0.0 280 / 51018.110.8 0.5 7.0 -6.7
2016-May-29 05:53N 59°06' W 165°24'1111.2 260 / 3 6.2 6.7
2016-May-29 04:54N 59°00' W 165°06'6 6.1 250 / 6 6.2 7.0
2016-May-29 03:55N 58°54' W 165°06'1213.1 310 / 2 6.9 7.1
2016-May-29 03:00N 58°42' W 165°06'9 8.1 270 / 21018.010.8 0.5 7.3 -7.5
2016-May-29 01:56N 58°36' W 165°18'2412.4 170 / 2 7.6 7.2
2016-May-29 00:00N 58°12' W 165°18'1413.3 200 / 51017.610.8 0.5 7.6 -6.7
2016-May-28 22:59N 58°00' W 165°30'7 6.9 180 / 5 7.4 6.7
2016-May-28 22:00N 57°54' W 165°36'1813.5 160 / 6 7.7 6.7
2016-May-28 20:39N 57°36' W 165°42'1212.0 140 / 9 7.1 6.7
2016-May-28 19:39N 57°24' W 165°42'3 3.3 150 / 8 7.6 6.8
2016-May-28 18:40N 57°24' W 165°48'6 6.1 140 / 8 7.7 6.7
2016-May-28 17:41N 57°18' W 165°48'25 8.4 170 / 8 7.6 7.0
2016-May-28 14:43N 56°54' W 166°00'3210.7 140 / 14 7.2 7.1
2016-May-28 11:46N 56°24' W 166°18'6 6.1 180 / 14 7.1 7.4
2016-May-28 10:47N 56°18' W 166°18'1212.7 160 / 17 7.3 7.6
2016-May-28 09:48N 56°06' W 166°24'7 6.9 150 / 16 7.3 7.7
2016-May-28 08:48N 56°00' W 166°30'1212.7 160 / 7 7.1 7.7
2016-May-28 07:49N 55°48' W 166°36'3110.4 110 / 12 7.4 7.7
2016-May-28 04:52N 55°18' W 166°48'1910.3 350 / 6 7.2 7.6
2016-May-28 03:00N 55°00' W 167°00'0 0.0 010 / 71013.2 7.1 6.7 7.3
2016-May-28 02:53N 55°00' W 167°00'9 9.3 010 / 7 7.1 7.3
2016-May-28 01:54N 54°54' W 166°48'2211.3 020 / 9 7.1 7.6
2016-May-28 00:00N 55°00' W 166°12'6 6.0 010 / 91012.4 5.4 0.5 7.4 -7.3
2016-May-27 23:00N 55°06' W 166°12'7138.2 350 / 91012.610.8 0.5 8.8 -7.6
2016-May-27 22:57N 55°12' W 166°18'7 7.3 350 / 9 7.4 7.6
2016-May-27 22:00N 55°18' W 166°12'0 0.0 010 / 91014.9 7.5 6.9 7.5
2016-May-27 21:57N 55°18' W 166°12'1213.1 350 / 10 7.3 7.5
2016-May-27 21:00N 55°30' W 166°06'0 0.0 1015.0 7.6 7.0 7.7
2016-May-27 20:58N 55°30' W 166°06'6 6.2 010 / 6 7.6 7.7
2016-May-27 20:00N 55°36' W 166°06'0 0.0 040 / 51015.2 7.4 6.8 7.5
2016-May-27 19:59N 55°36' W 166°06'7 7.0 040 / 6 7.4 7.5
2016-May-27 19:00N 55°42' W 166°00'1413.8 060 / 71015.5 7.2 6.6 7.5
2016-May-27 18:00N 55°54' W 165°48'3 9.6 060 / 91014.210.8 0.5 7.5 6.6-7.6
2016-May-27 17:39N 55°54' W 165°54'6 9.2 060 / 7 7.2 7.6
2016-May-27 17:00N 56°00' W 165°54'310.1 070 / 81016.6 7.1 6.4 7.6
2016-May-27 16:40N 56°00' W 165°48'1218.0 070 / 10 7.1 7.6
2016-May-27 16:00N 56°12' W 165°48'310.5 060 / 101016.9 7.0 6.3 7.3
2016-May-27 15:41N 56°12' W 165°42'6 8.8 060 / 10 7.0 7.4
2016-May-27 15:00N 56°18' W 165°42'0 0.0 050 / 91017.1 7.0 6.4 7.3
2016-May-27 14:42N 56°18' W 165°42'3713.6 060 / 10 7.0 7.3
2016-May-27 12:00N 56°54' W 165°30'312.3 060 / 101019.1 6.5 6.1 7.0
2016-May-27 11:44N 56°54' W 165°24'3211.5 070 / 11 6.5 7.0
2016-May-27 09:00N 57°24' W 165°06'313.9 060 / 91018.910.8 0.5 6.2 5.8-6.5
2016-May-27 08:46N 57°24' W 165°12'7 6.9 060 / 9 6.2 6.5
2016-May-27 07:47N 57°30' W 165°06'1810.3 070 / 9 6.2 6.4
2016-May-27 06:00N 57°48' W 165°00'0 0.0 080 / 101022.0 6.2 5.5 6.2
2016-May-27 05:49N 57°48' W 165°00'1214.7 080 / 10 6.3 6.1
2016-May-27 05:00N 58°00' W 165°00'740.8 080 / 111022.3 6.1 5.3 6.0
2016-May-27 04:50N 57°54' W 164°54'1821.6 080 / 11 6.0 6.0
2016-May-27 04:00N 58°12' W 164°54'745.2 090 / 91022.5 5.9 5.0 5.8
2016-May-27 03:51N 58°06' W 164°48'1212.4 090 / 9 5.9 5.7
2016-May-27 02:51N 58°18' W 164°42'1214.1 100 / 10 5.9 5.7
2016-May-27 02:00N 58°30' W 164°42'0 0.0 100 / 111023.6 5.9 4.9 5.8
2016-May-27 01:52N 58°30' W 164°42'2613.8 100 / 11 5.9 5.7
2016-May-27 00:00N 58°54' W 164°24'7 6.8 100 / 131023.3 5.4 0.5 6.0 4.5-6.5
2016-May-26 23:00N 59°00' W 164°30'337.1 100 / 121025.0 6.0 4.3 6.7
2016-May-26 22:55N 59°00' W 164°24'1212.4 100 / 13 5.9 6.7
2016-May-26 21:55N 59°12' W 164°18'6 6.1 110 / 9 5.9 7.0
2016-May-26 20:56N 59°18' W 164°18'1111.8 130 / 8 6.4 7.3
2016-May-26 20:00N 59°12' W 164°00'361.4 100 / 81026.4 6.2 4.2 7.6
2016-May-26 19:57N 59°12' W 163°54'12 6.4 110 / 7 6.2 7.6
2016-May-26 18:00N 59°00' W 163°48'0 0.0 130 / 101026.4 5.6 3.8 6.6
2016-May-26 17:59N 59°00' W 163°48'1212.2 130 / 10 5.7 6.7
2016-May-26 17:00N 58°48' W 163°48'1212.4 130 / 91026.2 5.5 3.8 6.4
2016-May-26 16:00N 58°36' W 163°54'7 6.8 130 / 12 5.8 6.2
2016-May-26 15:00N 58°30' W 164°00'0 0.0 140 / 111026.0 5.9 4.3 6.0
2016-May-26 14:56N 58°30' W 164°00'1213.3 150 / 14 5.9 6.0
2016-May-26 14:00N 58°18' W 164°06'0 0.0 130 / 121025.8 5.9 5.0 5.7
2016-May-26 13:56N 58°18' W 164°06'7 7.3 130 / 11 5.9 5.7
2016-May-26 13:00N 58°12' W 164°12'690.0 130 / 121025.7 6.0 5.1 5.8
2016-May-26 12:56N 58°06' W 164°12'7 7.3 140 / 10 6.0 5.8
2016-May-26 12:00N 58°00' W 164°18'0 0.0 140 / 101025.9 6.0 5.1 5.7
2016-May-26 11:57N 58°00' W 164°18'2412.4 140 / 11 5.9 5.7
2016-May-26 10:00N 57°36' W 164°24'1212.0 150 / 131026.2 6.4 4.2 6.1
2016-May-26 09:00N 57°24' W 164°24'3210.5 140 / 131024.110.8 0.5 6.4 4.6-6.5
2016-May-26 06:00N 56°54' W 164°42'328.1 150 / 131023.510.8 1.0 7.1 4.7-6.6
2016-May-26 05:53N 56°54' W 164°48'1212.2 150 / 12 6.7 6.6
2016-May-26 04:54N 56°42' W 164°48'1212.7 160 / 12 6.9 6.7
2016-May-26 03:55N 56°30' W 164°54'9 9.8 170 / 11 7.1 6.8
2016-May-26 03:00N 56°24' W 165°06'349.8 180 / 101025.5 7.2 4.8 7.0
2016-May-26 02:56N 56°24' W 165°00'1414.7 180 / 10 7.1 7.0
2016-May-26 02:00N 56°12' W 165°12'366.8 190 / 131025.6 8.5 5.8 6.8
2016-May-26 01:57N 56°12' W 165°06'1212.5 190 / 12 8.5 6.8
2016-May-26 00:57N 56°00' W 165°12'7 7.2 190 / 16 7.8 7.0
2016-May-26 00:00N 55°54' W 165°18'6 6.0 190 / 141025.4 7.4 4.5 7.0
2016-May-25 23:00N 55°48' W 165°18'0 0.0 190 / 181025.5 7.1 4.3 7.0
2016-May-25 22:59N 55°48' W 165°18'19 9.7 190 / 21 7.4 7.0
2016-May-25 21:00N 55°30' W 165°30'617.1 180 / 201025.5 6.7 4.5 7.1
2016-May-25 20:39N 55°24' W 165°30'710.5 180 / 23 6.9 7.1
2016-May-25 20:00N 55°24' W 165°18'720.4 190 / 241025.4 6.7 4.3 6.8
2016-May-25 19:40N 55°24' W 165°06'710.2 190 / 22 6.8 6.8
2016-May-25 19:00N 55°24' W 164°54'9 9.1 190 / 241025.5 6.7 4.5 7.0
2016-May-25 18:00N 55°30' W 164°42'1212.5 210 / 191023.710.8 1.0 6.6 -6.7
2016-May-25 17:00N 55°42' W 164°48'311.3 210 / 181025.7 6.2 4.2 6.8
2016-May-25 16:42N 55°42' W 164°42'1810.8 210 / 22 6.1 6.8
2016-May-25 15:00N 56°00' W 164°36'0 0.0 210 / 181025.2 5.8 4.4 6.8
2016-May-25 14:44N 56°00' W 164°36'6 8.2 210 / 19 5.7 6.7
2016-May-25 14:00N 56°06' W 164°36'313.4 210 / 171025.2 5.8 4.1 6.8
2016-May-25 13:45N 56°06' W 164°30'1810.5 210 / 18 5.9 6.8
2016-May-25 12:00N 56°24' W 164°24'1212.4 210 / 161025.0 6.3 4.6 6.7
2016-May-25 11:00N 56°36' W 164°18'315.2 230 / 141025.1 6.5 4.5 6.8
2016-May-25 10:47N 56°36' W 164°12'1215.3 220 / 14 6.5 6.7
2016-May-25 10:00N 56°48' W 164°12'0 0.0 210 / 101025.3 6.5 5.6 6.8
2016-May-25 09:48N 56°48' W 164°12'1215.5 210 / 10 6.5 6.8
2016-May-25 09:00N 57°00' W 164°06'0 0.0 230 / 101025.4 6.3 5.7 6.8
2016-May-25 08:49N 57°00' W 164°06'7 8.4 230 / 11 6.2 6.8
2016-May-25 08:00N 57°06' W 164°00'1210.7 210 / 131025.3 6.0 5.4 6.6
2016-May-25 06:50N 57°18' W 163°54'1214.4 240 / 14 5.9 6.2
2016-May-25 06:00N 57°30' W 163°54'745.4 210 / 121024.8 6.3 5.7 6.2
2016-May-25 05:51N 57°24' W 163°48'3712.8 210 / 12 6.3 6.1
2016-May-25 03:00N 58°00' W 163°36'0 0.0 220 / 111025.1 5.9 5.4 6.2
2016-May-25 02:53N 58°00' W 163°36'7 6.9 220 / 11 5.9 6.2
2016-May-25 01:54N 58°06' W 163°30'1212.6 210 / 11 5.9 6.1
2016-May-25 00:55N 58°18' W 163°24'1414.8 210 / 12 6.3 6.5
2016-May-25 00:00N 58°30' W 163°12'1212.4 220 / 131023.2 5.4 1.0 5.6 4.8-6.1
2016-May-24 23:00N 58°42' W 163°18'6120.0 220 / 151025.0 6.3 4.5 6.2
2016-May-24 22:57N 58°36' W 163°18'23 7.7 220 / 13 6.3 6.2
2016-May-24 20:00N 58°42' W 162°36'6360.0 200 / 121025.2 6.3 3.7 6.4
2016-May-24 19:59N 58°36' W 162°36'18 9.2 200 / 13 6.3 6.4
2016-May-24 18:00N 58°18' W 162°42'3 9.0 250 / 131024.010.8 0.5 6.6 3.5-6.2
2016-May-24 17:39N 58°18' W 162°48'710.4 250 / 11 6.3 6.2
2016-May-24 17:00N 58°12' W 162°54'618.0 250 / 121025.9 6.3 4.1 6.4
2016-May-24 16:40N 58°06' W 162°54'25 9.3 240 / 10 6.3 6.4
2016-May-24 14:00N 57°42' W 163°06'620.0 220 / 111025.6 6.5 4.4 6.2
2016-May-24 13:42N 57°36' W 163°06'1911.2 230 / 12 6.4 6.2
2016-May-24 12:00N 57°18' W 163°18'3110.2 240 / 71025.9 6.5 4.1 6.1
2016-May-24 09:00N 56°48' W 163°30'1212.4 210 / 81026.1 6.7 6.4 6.8
2016-May-24 08:00N 56°36' W 163°36'7 6.9 220 / 81025.9 6.7 6.4 7.0
2016-May-24 07:00N 56°30' W 163°42'630.0 220 / 71025.6 6.6 6.3 7.0
2016-May-24 06:48N 56°24' W 163°42'7 8.6 220 / 7 6.6 7.0
2016-May-24 06:00N 56°18' W 163°48'0 0.0 210 / 71025.2 7.0 6.7 7.1
2016-May-24 05:49N 56°18' W 163°48'1910.6 220 / 8 6.8 7.1
2016-May-24 04:00N 56°00' W 164°00'741.3 230 / 51025.2 6.5 6.2 6.8
2016-May-24 03:50N 55°54' W 163°54'23 8.3 230 / 4 6.5 6.8
2016-May-24 01:00N 56°06' W 163°18'7 6.9 260 / 111025.0 6.6 6.3 6.7
2016-May-24 00:00N 56°12' W 163°12'3712.4 250 / 101024.7 6.6 6.3 6.7
2016-May-23 21:00N 56°48' W 162°54'0 0.0 270 / 81023.3 6.4 6.0 6.7
2016-May-23 20:56N 56°48' W 162°54'1213.3 270 / 8 6.5 6.7
2016-May-23 20:00N 57°00' W 162°48'6120.0 290 / 91022.8 6.2 5.9 6.1
2016-May-23 19:57N 56°54' W 162°48'2512.6 290 / 9 6.2 6.2
2016-May-23 17:59N 57°18' W 162°36'1212.6 240 / 13 6.3 6.2
2016-May-23 17:00N 57°30' W 162°30'0 0.0 240 / 91021.4 6.2 5.8 6.1
2016-May-23 16:59N 57°30' W 162°30'2613.0 240 / 10 6.3 6.1
2016-May-23 15:00N 57°54' W 162°12'3 9.1 200 / 91019.510.8 0.5 6.8 5.2-6.2
2016-May-23 14:39N 57°54' W 162°18'6 9.2 200 / 9 6.0 6.1
2016-May-23 14:00N 58°00' W 162°18'3 9.5 200 / 121021.2 6.0 4.8 6.4
2016-May-23 13:40N 58°00' W 162°12'1218.0 220 / 11 6.1 6.3
2016-May-23 13:00N 58°12' W 162°12'9 9.5 220 / 111021.2 6.0 4.5 6.4
2016-May-23 12:00N 58°12' W 161°54'1111.2 180 / 131021.5 5.7 3.7 6.5
2016-May-23 11:00N 58°06' W 161°36'311.2 190 / 101022.0 5.5 2.4 5.8
2016-May-23 10:43N 58°06' W 161°30'1911.1 200 / 9 5.4 6.0
2016-May-23 09:00N 57°48' W 161°42'622.5 210 / 71022.1 5.5 2.6 6.2
2016-May-23 08:44N 57°42' W 161°42'7 9.3 210 / 7 5.5 6.2
2016-May-23 08:00N 57°36' W 161°48'624.0 190 / 61022.0 5.5 3.0 6.2
2016-May-23 07:45N 57°30' W 161°48'7 9.1 200 / 6 5.5 6.2
2016-May-23 07:00N 57°24' W 161°54'0 0.0 200 / 41021.7 5.6 3.1 6.2
2016-May-23 06:46N 57°24' W 161°54'1823.5 200 / 3 5.6 6.2
2016-May-23 06:00N 57°06' W 161°54'315.0 240 / 91019.510.8 1.0 7.4 3.0-6.2
2016-May-23 05:47N 57°06' W 162°00'3 4.2 240 / 8 6.1 6.2
2016-May-23 05:00N 57°06' W 162°06'627.7 250 / 71021.2 6.2 3.4 6.3
2016-May-23 04:47N 57°00' W 162°06'1215.9 250 / 7 6.2 6.3
2016-May-23 04:00N 56°48' W 162°12'0 0.0 230 / 61020.9 6.3 3.8 6.4
2016-May-23 03:48N 56°48' W 162°12'7 8.6 230 / 6 6.2 6.4
2016-May-23 03:00N 56°42' W 162°06'318.0 250 / 91018.610.8 1.0 6.5 3.1-6.6
2016-May-23 02:49N 56°42' W 162°12'18 9.3 260 / 7 6.5 6.6
2016-May-23 00:51N 56°24' W 162°18'1820.8 280 / 5 6.3 6.7
2016-May-23 00:00N 56°18' W 161°48'12 5.9 240 / 131017.1 5.4 1.0 6.6 5.6-6.5
2016-May-22 21:53N 56°30' W 161°42'1214.1 240 / 15 6.7 6.5
2016-May-22 21:00N 56°42' W 161°36'660.0 230 / 161016.8 6.6 6.3 6.5
2016-May-22 20:54N 56°36' W 161°36'2412.7 230 / 16 6.6 6.5
2016-May-22 19:00N 57°00' W 161°30'7 6.8 230 / 221015.3 6.7 6.2 6.2
2016-May-22 18:00N 57°06' W 161°24'690.0 220 / 211014.6 6.5 6.0 6.0
2016-May-22 17:56N 57°00' W 161°24'1213.3 230 / 21 6.5 6.0
2016-May-22 17:00N 57°12' W 161°18'0 0.0 220 / 231013.7 6.5 5.9 5.7
2016-May-22 16:57N 57°12' W 161°18'18 9.3 220 / 23 6.5 5.7
2016-May-22 14:59N 57°30' W 161°12'7 6.9 210 / 22 6.5 5.8
2016-May-22 14:00N 57°36' W 161°06'0 0.0 210 / 211012.8 6.4 6.0 5.8
2016-May-22 13:59N 57°36' W 161°06'18 9.2 210 / 22 6.3 5.8
2016-May-22 12:00N 57°54' W 161°00'0 0.0 190 / 221012.7 6.1 5.5 5.6
2016-May-22 11:39N 57°54' W 161°00'6 9.2 190 / 22 6.0 5.6
2016-May-22 11:00N 58°00' W 161°00'3 9.5 180 / 231013.3 5.9 5.2 6.0
2016-May-22 10:40N 58°00' W 160°54'2012.0 180 / 25 5.9 6.0
2016-May-22 09:00N 57°54' W 160°18'19 9.6 190 / 191015.7 5.7 4.7 5.7
2016-May-22 07:00N 57°36' W 160°30'1212.4 190 / 181016.2 6.2 4.5 5.8
2016-May-22 06:00N 57°24' W 160°24'312.1 190 / 131014.610.8 1.0 7.8 4.7-5.7
2016-May-22 05:44N 57°24' W 160°30'912.0 190 / 15 6.6 5.7
2016-May-22 05:00N 57°18' W 160°42'729.2 170 / 161017.0 6.5 4.5 5.8
2016-May-22 04:46N 57°12' W 160°36'1810.4 160 / 12 6.5 5.8
2016-May-22 03:00N 56°54' W 160°42'315.1 170 / 131016.0 5.4 0.5 6.4 4.4-6.0
2016-May-22 02:47N 56°54' W 160°48'7 8.7 180 / 14 6.5 5.9
2016-May-22 02:00N 56°48' W 160°54'0 0.0 160 / 101018.1 6.0 3.5 6.2
2016-May-22 01:48N 56°48' W 160°54'1215.6 160 / 10 6.0 6.2
2016-May-22 01:00N 56°36' W 161°00'318.0 140 / 61018.5 6.0 4.0 6.1
2016-May-22 00:49N 56°36' W 160°54'7 8.1 140 / 6 6.0 6.1
2016-May-22 00:00N 56°36' W 160°42'9 8.9 220 / 51017.3 5.4 1.0 6.5 3.6-6.2
2016-May-21 23:00N 56°42' W 160°30'0 0.0 230 / 121019.4 6.2 3.8 5.8
2016-May-21 22:50N 56°42' W 160°30'1213.9 230 / 12 6.2 5.7
2016-May-21 22:00N 56°48' W 160°12'0 0.0 230 / 151019.3 6.0 3.7 5.7
2016-May-21 21:51N 56°48' W 160°12'1214.1 230 / 16 6.0 5.7
2016-May-21 21:00N 57°00' W 160°12'751.3 240 / 151018.6 6.3 3.8 5.9
2016-May-21 20:52N 56°54' W 160°06'3712.8 240 / 15 6.3 5.9
2016-May-21 18:00N 57°30' W 159°54'768.1 260 / 181016.2 5.6 2.9 5.4
2016-May-21 17:54N 57°24' W 159°48'2412.6 260 / 20 5.7 5.4
2016-May-21 16:00N 57°48' W 159°48'7 6.8 250 / 181014.1 5.6 3.3 5.6
2016-May-21 15:00N 57°54' W 159°42'0 0.0 260 / 161013.3 5.4 2.9 5.8
2016-May-21 14:57N 57°54' W 159°42'1213.1 260 / 16 5.6 5.7
2016-May-21 14:00N 58°06' W 159°36'6180.0 270 / 231011.9 5.5 2.0 5.8
2016-May-21 13:58N 58°00' W 159°36'1212.8 260 / 22 5.5 5.8
2016-May-21 13:00N 58°12' W 159°30'0 0.0 270 / 201011.0 5.5 2.5 6.6
2016-May-21 12:58N 58°12' W 159°30'7 7.0 260 / 24 5.7 6.6
2016-May-21 12:00N 58°06' W 159°24'0 0.0 260 / 281009.9 5.6 1.9 6.0
2016-May-21 11:59N 58°06' W 159°24'1212.6 260 / 25 5.6 6.0
2016-May-21 11:00N 57°54' W 159°18'14 6.8 270 / 281009.2 5.3 3.3 6.0
2016-May-21 09:00N 57°42' W 159°06'618.0 260 / 311007.4 5.6 3.4 5.6
2016-May-21 08:40N 57°36' W 159°06'710.2 270 / 31 5.6 5.6
2016-May-21 08:00N 57°30' W 159°12'20 6.7 270 / 281006.5 5.6 3.6 5.5
2016-May-21 05:00N 57°18' W 158°42'622.5 260 / 211002.9 6.0 5.7 5.8
2016-May-21 04:44N 57°12' W 158°42'2011.8 260 / 22 6.0 5.8
2016-May-21 03:00N 57°06' W 159°18'624.0 290 / 241001.0 5.9 5.8 5.7
2016-May-21 02:45N 57°00' W 159°18'7 8.7 290 / 23 6.0 5.7
2016-May-21 02:00N 57°00' W 159°30'625.7 290 / 24999.9 6.0 5.8 5.9
2016-May-21 01:46N 56°54' W 159°30'1212.7 290 / 23 6.0 6.1
2016-May-21 00:47N 56°42' W 159°36'7 8.7 300 / 23 6.0 6.6
2016-May-21 00:00N 56°36' W 159°42'1211.6 320 / 19996.9 5.4 0.5 6.2 6.2-7.2
2016-May-20 23:00N 56°30' W 160°00'0 0.0 340 / 19997.1 0.5 0.5 6.0 5.6-6.2
2016-May-20 22:48N 56°30' W 160°00'1316.6 340 / 18 5.8 6.3
2016-May-20 22:00N 56°30' W 160°24'737.4 340 / 19999.5 5.5 5.2 6.1
2016-May-20 21:49N 56°24' W 160°18'7 8.1 340 / 18 5.5 6.1
2016-May-20 21:00N 56°24' W 160°30'741.2 350 / 17999.9 5.5 5.0 6.7
2016-May-20 20:50N 56°18' W 160°24'24 8.5 340 / 17 5.5 6.9
2016-May-20 18:00N 56°12' W 161°06'0 0.0 1002.5 5.8 4.8 6.0
2016-May-20 17:52N 56°12' W 161°06'2311.9 360 / 9 5.8 6.0
2016-May-20 15:54N 56°00' W 161°42'1011.2 350 / 11 6.0 6.6
2016-May-20 15:00N 56°00' W 162°00'0 0.0 340 / 91005.1 6.0 4.3 6.8
2016-May-20 14:55N 56°00' W 162°00'7 6.8 350 / 9 6.0 6.8
2016-May-20 13:56N 56°00' W 162°12'17 8.7 300 / 10 5.9 6.3
2016-May-20 12:00N 56°00' W 162°42'7137.5 340 / 31006.3 5.7 4.7 7.0
2016-May-20 11:57N 55°54' W 162°36'9 9.5 330 / 3 5.7 7.0
2016-May-20 11:00N 55°48' W 162°48'3101.2 080 / 41006.8 5.1 4.4 6.3
2016-May-20 10:58N 55°48' W 162°42'1212.7 090 / 6 5.2 6.6
2016-May-20 09:59N 55°36' W 162°48'1212.7 010 / 3 5.4 6.7
2016-May-20 09:00N 55°24' W 162°54'1211.8 290 / 5 5.8 6.2
2016-May-20 08:00N 55°30' W 163°12'0 0.0 210 / 31008.3 5.7 4.3 7.0
2016-May-20 07:39N 55°30' W 163°12'1015.7 190 / 6 5.8 6.8
2016-May-20 07:00N 55°30' W 163°30'7 6.9 240 / 21008.5 6.2 5.2 7.1
2016-May-20 06:00N 55°24' W 163°36'618.0 290 / 11008.9 6.2 4.5 7.2
2016-May-20 05:40N 55°18' W 163°36'710.4 300 / 2 6.1 7.1
2016-May-20 05:00N 55°12' W 163°42'0 0.0 210 / 21009.2 5.5 4.1 7.1
2016-May-20 04:41N 55°12' W 163°42'1911.4 190 / 2 5.4 7.0
2016-May-20 03:00N 55°30' W 163°54'1211.8 030 / 131008.5 5.4 0.5 6.4 4.8-7.0
2016-May-20 02:00N 55°36' W 164°12'725.9 050 / 91011.1 6.3 3.7 7.0
2016-May-20 01:44N 55°30' W 164°06'14 8.0 050 / 8 6.1 7.0
2016-May-20 00:00N 55°18' W 164°18'7 6.9 060 / 71012.6 6.2 4.0 7.5
2016-May-19 23:00N 55°12' W 164°24'314.7 070 / 71012.9 6.1 4.1 7.1
2016-May-19 22:46N 55°12' W 164°18'1418.0 080 / 8 6.2 7.2
2016-May-19 22:00N 55°00' W 164°30'315.9 040 / 81013.2 5.4 3.4 6.6
2016-May-19 21:47N 55°00' W 164°24'7 8.8 040 / 9 5.3 6.6
2016-May-19 21:00N 55°00' W 164°36'734.6 050 / 71014.2 5.4 3.7 6.5
2016-May-19 20:48N 54°54' W 164°30'7 8.6 060 / 7 5.5 6.5
2016-May-19 20:00N 55°00' W 164°36'630.0 1014.5 4.6 3.3 6.6
2016-May-19 19:48N 54°54' W 164°36'1214.9 360 / 7 4.5 6.6
2016-May-19 19:00N 55°00' W 164°54'0 0.0 290 / 21015.2 4.1 2.3 6.6
2016-May-19 18:49N 55°00' W 164°54'911.2 260 / 1 4.0 6.6
2016-May-19 18:00N 55°06' W 165°06'636.0 170 / 71015.4 5.1 0.7 6.7
2016-May-19 17:50N 55°00' W 165°06'910.9 160 / 6 5.2 6.8
2016-May-19 17:00N 55°06' W 165°18'1413.7 190 / 131013.910.8 0.5 5.7 0.5-6.8
2016-May-19 16:00N 55°06' W 165°42'325.7 210 / 101015.6 5.3 2.3 6.7
2016-May-19 15:52N 55°06' W 165°36'910.5 210 / 10 5.3 6.7
2016-May-19 15:00N 55°00' W 165°48'759.3 220 / 81015.9 4.9 2.2 7.0
2016-May-19 14:53N 54°54' W 165°42'7 6.9 220 / 8 4.9 7.0
2016-May-19 13:53N 54°48' W 165°48'9 9.3 250 / 8 4.8 6.8
2016-May-19 12:54N 54°42' W 165°36'1011.6 180 / 15 5.6 6.5
2016-May-19 12:00N 54°42' W 165°18'0 0.0 180 / 161016.9 5.4 0.7 6.7
2016-May-19 11:55N 54°42' W 165°18'6 6.0 180 / 15 5.5 6.7
2016-May-19 10:55N 54°36' W 165°18'   180 / 15 5.4 6.4

Dump ship's entire track history